KRNO/RNO METAR and TAF weather

Enter ICAO airport designator
Station Type Date Time Source
KRNO METAR 2021/09/23 23:55 UTC NOAA

KRNO 232355Z VRB03KT 10SM BKN240 26/M03 A3014 RMK AO2 SLP161 T02611033 10272 20211 56011


Station Type Date Time Source
KRNO Decoded METAR 2021/09/23 23:55 UTC NOAA

RENO/TAHOE INTERNATIONAL AIRPORT, NV, United States (KRNO) 39-29N 119-46W 1342M
Sep 23, 2021 - 07:55 PM EDT / 2021.09.23 2355 UTC
Wind: Variable at 3 MPH (3 KT):0
Visibility: 10 mile(s):0
Sky conditions: mostly cloudy
Temperature: 79.0 F (26.1 C)
Dew Point: 26.1 F (-3.3 C)
Relative Humidity: 14%
Pressure (altimeter): 30.14 in. Hg (1020 hPa)
Pressure tendency: 0.03 inches (1.1 hPa) lower than three hours ago
ob: KRNO 232355Z VRB03KT 10SM BKN240 26/M03 A3014 RMK AO2 SLP161 T02611033 10272 20211 56011
cycle: 0

Station Type Date Time Source
KRNO TAF 2021/09/23 18:33 UTC NOAA

TAF KRNO 231731Z 2318/2418 06010KT P6SM SCT250
FM240300 VRB04KT P6SM SKC

Example: see airport list